sensor_id;sensor_type;location;lat;lon;timestamp;pressure;altitude;pressure_sealevel;temperature;humidity
72096;BME280;59968;51.084;16.748;2023-10-08T00:01:38;100164.19;;;12.85;82.63
72096;BME280;59968;51.084;16.748;2023-10-08T00:04:11;100183.02;;;12.84;82.61
72096;BME280;59968;51.084;16.748;2023-10-08T00:06:40;100179.67;;;12.82;82.75
72096;BME280;59968;51.084;16.748;2023-10-08T00:09:09;100162.47;;;12.79;82.88
72096;BME280;59968;51.084;16.748;2023-10-08T00:11:39;100150.93;;;12.79;82.91
72096;BME280;59968;51.084;16.748;2023-10-08T00:14:08;100162.07;;;12.78;82.81
72096;BME280;59968;51.084;16.748;2023-10-08T00:16:38;100164.18;;;12.79;82.94
72096;BME280;59968;51.084;16.748;2023-10-08T00:19:08;100173.10;;;12.80;82.94
72096;BME280;59968;51.084;16.748;2023-10-08T00:21:39;100171.34;;;12.81;83.01
72096;BME280;59968;51.084;16.748;2023-10-08T00:24:08;100162.84;;;12.84;82.95
72096;BME280;59968;51.084;16.748;2023-10-08T00:26:37;100164.35;;;12.84;82.83
72096;BME280;59968;51.084;16.748;2023-10-08T00:29:09;100181.05;;;12.87;82.88
72096;BME280;59968;51.084;16.748;2023-10-08T00:31:58;100197.17;;;12.89;82.94
72096;BME280;59968;51.084;16.748;2023-10-08T00:34:26;100203.95;;;12.89;82.90
72096;BME280;59968;51.084;16.748;2023-10-08T00:36:55;100201.59;;;12.89;83.00
72096;BME280;59968;51.084;16.748;2023-10-08T00:39:24;100191.55;;;12.86;82.81
72096;BME280;59968;51.084;16.748;2023-10-08T00:41:53;100188.18;;;12.86;82.84
72096;BME280;59968;51.084;16.748;2023-10-08T00:44:28;100174.11;;;12.87;82.82
72096;BME280;59968;51.084;16.748;2023-10-08T00:47:04;100169.67;;;12.90;82.64
72096;BME280;59968;51.084;16.748;2023-10-08T00:49:33;100169.19;;;12.90;82.41
72096;BME280;59968;51.084;16.748;2023-10-08T00:52:12;100175.86;;;12.90;82.57
72096;BME280;59968;51.084;16.748;2023-10-08T00:54:42;100184.31;;;12.91;82.40
72096;BME280;59968;51.084;16.748;2023-10-08T00:57:30;100187.52;;;12.91;82.57
72096;BME280;59968;51.084;16.748;2023-10-08T01:00:05;100179.42;;;12.91;82.65
72096;BME280;59968;51.084;16.748;2023-10-08T01:02:35;100178.73;;;12.91;82.56
72096;BME280;59968;51.084;16.748;2023-10-08T01:05:23;100175.98;;;12.92;82.65
72096;BME280;59968;51.084;16.748;2023-10-08T01:07:56;100177.77;;;12.91;82.43
72096;BME280;59968;51.084;16.748;2023-10-08T01:10:26;100170.63;;;12.89;82.57
72096;BME280;59968;51.084;16.748;2023-10-08T01:12:55;100164.07;;;12.86;82.42
72096;BME280;59968;51.084;16.748;2023-10-08T01:15:29;100174.48;;;12.85;82.61
72096;BME280;59968;51.084;16.748;2023-10-08T01:17:58;100182.80;;;12.85;82.50
72096;BME280;59968;51.084;16.748;2023-10-08T01:20:33;100190.88;;;12.81;82.68
72096;BME280;59968;51.084;16.748;2023-10-08T01:23:11;100198.89;;;12.77;83.00
72096;BME280;59968;51.084;16.748;2023-10-08T01:25:45;100202.13;;;12.69;83.20
72096;BME280;59968;51.084;16.748;2023-10-08T01:28:34;100190.17;;;12.63;83.41
72096;BME280;59968;51.084;16.748;2023-10-08T01:31:03;100186.81;;;12.60;83.65
72096;BME280;59968;51.084;16.748;2023-10-08T01:33:32;100189.02;;;12.56;83.70
72096;BME280;59968;51.084;16.748;2023-10-08T01:36:15;100202.05;;;12.52;83.88
72096;BME280;59968;51.084;16.748;2023-10-08T01:38:44;100197.14;;;12.46;84.01
72096;BME280;59968;51.084;16.748;2023-10-08T01:41:17;100195.52;;;12.43;84.37
72096;BME280;59968;51.084;16.748;2023-10-08T01:43:57;100202.88;;;12.36;84.34
72096;BME280;59968;51.084;16.748;2023-10-08T01:46:27;100204.77;;;12.30;84.55
72096;BME280;59968;51.084;16.748;2023-10-08T01:48:56;100212.33;;;12.28;84.54
72096;BME280;59968;51.084;16.748;2023-10-08T01:51:32;100219.50;;;12.25;84.61
72096;BME280;59968;51.084;16.748;2023-10-08T01:54:05;100217.38;;;12.20;84.72
72096;BME280;59968;51.084;16.748;2023-10-08T01:56:41;100223.35;;;12.17;84.77
72096;BME280;59968;51.084;16.748;2023-10-08T02:01:43;100243.13;;;12.10;84.92
72096;BME280;59968;51.084;16.748;2023-10-08T02:04:13;100247.73;;;12.06;85.14
72096;BME280;59968;51.084;16.748;2023-10-08T02:06:46;100258.97;;;12.07;85.28
72096;BME280;59968;51.084;16.748;2023-10-08T02:09:14;100263.58;;;12.08;85.27
72096;BME280;59968;51.084;16.748;2023-10-08T02:11:45;100272.29;;;12.06;85.35
72096;BME280;59968;51.084;16.748;2023-10-08T02:14:14;100287.64;;;12.04;85.48
72096;BME280;59968;51.084;16.748;2023-10-08T02:16:43;100293.33;;;12.02;85.93
72096;BME280;59968;51.084;16.748;2023-10-08T02:19:13;100286.44;;;12.01;86.06
72096;BME280;59968;51.084;16.748;2023-10-08T02:21:46;100278.44;;;11.99;86.04
72096;BME280;59968;51.084;16.748;2023-10-08T02:24:15;100281.28;;;11.96;86.25
72096;BME280;59968;51.084;16.748;2023-10-08T02:26:43;100289.71;;;11.88;86.35
72096;BME280;59968;51.084;16.748;2023-10-08T02:29:12;100299.27;;;11.88;86.53
72096;BME280;59968;51.084;16.748;2023-10-08T02:31:40;100303.02;;;11.90;86.75
72096;BME280;59968;51.084;16.748;2023-10-08T02:34:10;100315.35;;;11.92;86.77
72096;BME280;59968;51.084;16.748;2023-10-08T02:36:40;100328.41;;;11.88;86.67
72096;BME280;59968;51.084;16.748;2023-10-08T02:39:11;100335.84;;;11.84;86.86
72096;BME280;59968;51.084;16.748;2023-10-08T02:41:44;100335.34;;;11.79;87.19
72096;BME280;59968;51.084;16.748;2023-10-08T02:44:16;100335.16;;;11.72;87.21
72096;BME280;59968;51.084;16.748;2023-10-08T02:46:47;100329.23;;;11.65;87.50
72096;BME280;59968;51.084;16.748;2023-10-08T02:49:18;100330.30;;;11.60;87.72
72096;BME280;59968;51.084;16.748;2023-10-08T02:51:54;100327.77;;;11.58;87.92
72096;BME280;59968;51.084;16.748;2023-10-08T02:54:22;100339.23;;;11.53;87.98
72096;BME280;59968;51.084;16.748;2023-10-08T02:56:53;100345.48;;;11.47;87.71
72096;BME280;59968;51.084;16.748;2023-10-08T02:59:32;100352.20;;;11.41;87.99
72096;BME280;59968;51.084;16.748;2023-10-08T03:02:11;100362.67;;;11.38;87.89
72096;BME280;59968;51.084;16.748;2023-10-08T03:04:51;100368.19;;;11.35;88.33
72096;BME280;59968;51.084;16.748;2023-10-08T03:07:21;100361.75;;;11.34;88.40
72096;BME280;59968;51.084;16.748;2023-10-08T03:09:52;100358.96;;;11.35;88.30
72096;BME280;59968;51.084;16.748;2023-10-08T03:12:46;100363.92;;;11.36;88.25
72096;BME280;59968;51.084;16.748;2023-10-08T03:15:15;100368.36;;;11.38;88.04
72096;BME280;59968;51.084;16.748;2023-10-08T03:18:06;100381.02;;;11.39;87.92
72096;BME280;59968;51.084;16.748;2023-10-08T03:20:38;100393.39;;;11.40;87.77
72096;BME280;59968;51.084;16.748;2023-10-08T03:23:08;100404.93;;;11.41;87.77
72096;BME280;59968;51.084;16.748;2023-10-08T03:25:41;100398.81;;;11.40;87.74
72096;BME280;59968;51.084;16.748;2023-10-08T03:28:11;100410.52;;;11.43;87.85
72096;BME280;59968;51.084;16.748;2023-10-08T03:30:44;100421.83;;;11.45;88.00
72096;BME280;59968;51.084;16.748;2023-10-08T03:33:19;100429.92;;;11.45;88.07
72096;BME280;59968;51.084;16.748;2023-10-08T03:35:52;100432.06;;;11.41;88.15
72096;BME280;59968;51.084;16.748;2023-10-08T03:38:23;100428.73;;;11.39;88.07
72096;BME280;59968;51.084;16.748;2023-10-08T03:41:27;100416.71;;;11.34;88.00
72096;BME280;59968;51.084;16.748;2023-10-08T03:43:57;100430.73;;;11.32;87.76
72096;BME280;59968;51.084;16.748;2023-10-08T03:46:34;100432.95;;;11.31;87.84
72096;BME280;59968;51.084;16.748;2023-10-08T03:49:11;100448.89;;;11.30;88.35
72096;BME280;59968;51.084;16.748;2023-10-08T03:51:49;100453.24;;;11.26;88.37
72096;BME280;59968;51.084;16.748;2023-10-08T03:54:21;100463.28;;;11.27;88.51
72096;BME280;59968;51.084;16.748;2023-10-08T03:57:02;100466.30;;;11.32;88.29
72096;BME280;59968;51.084;16.748;2023-10-08T03:59:41;100465.33;;;11.34;88.18
72096;BME280;59968;51.084;16.748;2023-10-08T04:02:10;100468.29;;;11.35;88.14
72096;BME280;59968;51.084;16.748;2023-10-08T04:04:44;100472.89;;;11.34;88.11
72096;BME280;59968;51.084;16.748;2023-10-08T04:07:21;100471.00;;;11.33;88.10
72096;BME280;59968;51.084;16.748;2023-10-08T04:10:02;100464.59;;;11.31;88.13
72096;BME280;59968;51.084;16.748;2023-10-08T04:12:37;100468.30;;;11.31;87.92
72096;BME280;59968;51.084;16.748;2023-10-08T04:15:13;100463.30;;;11.27;87.64
72096;BME280;59968;51.084;16.748;2023-10-08T04:17:45;100474.10;;;11.26;87.48
72096;BME280;59968;51.084;16.748;2023-10-08T04:20:19;100477.56;;;11.24;87.41
72096;BME280;59968;51.084;16.748;2023-10-08T04:23:08;100471.71;;;11.20;87.37
72096;BME280;59968;51.084;16.748;2023-10-08T04:25:49;100459.55;;;11.18;87.23
72096;BME280;59968;51.084;16.748;2023-10-08T04:28:23;100444.07;;;11.16;87.10
72096;BME280;59968;51.084;16.748;2023-10-08T04:30:57;100455.09;;;11.16;87.10
72096;BME280;59968;51.084;16.748;2023-10-08T04:33:30;100463.41;;;11.18;86.96
72096;BME280;59968;51.084;16.748;2023-10-08T04:36:02;100468.65;;;11.18;86.86
72096;BME280;59968;51.084;16.748;2023-10-08T04:38:31;100475.65;;;11.19;86.74
72096;BME280;59968;51.084;16.748;2023-10-08T04:41:07;100473.02;;;11.19;86.74
72096;BME280;59968;51.084;16.748;2023-10-08T04:43:39;100473.77;;;11.19;86.72
72096;BME280;59968;51.084;16.748;2023-10-08T04:46:11;100473.63;;;11.22;86.80
72096;BME280;59968;51.084;16.748;2023-10-08T04:49:02;100469.68;;;11.21;86.77
72096;BME280;59968;51.084;16.748;2023-10-08T04:51:35;100479.96;;;11.19;86.86
72096;BME280;59968;51.084;16.748;2023-10-08T04:54:12;100483.53;;;11.16;86.64
72096;BME280;59968;51.084;16.748;2023-10-08T04:56:44;100488.55;;;11.10;86.52
72096;BME280;59968;51.084;16.748;2023-10-08T04:59:13;100488.52;;;11.05;86.62
72096;BME280;59968;51.084;16.748;2023-10-08T05:01:42;100498.14;;;10.99;86.64
72096;BME280;59968;51.084;16.748;2023-10-08T05:04:24;100495.02;;;10.94;86.96
72096;BME280;59968;51.084;16.748;2023-10-08T05:07:01;100523.15;;;10.92;87.31
72096;BME280;59968;51.084;16.748;2023-10-08T05:09:46;100536.68;;;10.89;87.42
72096;BME280;59968;51.084;16.748;2023-10-08T05:12:35;100548.79;;;10.86;87.72
72096;BME280;59968;51.084;16.748;2023-10-08T05:15:07;100547.02;;;10.83;87.78
72096;BME280;59968;51.084;16.748;2023-10-08T05:17:46;100549.12;;;10.82;87.82
72096;BME280;59968;51.084;16.748;2023-10-08T05:20:26;100558.23;;;10.82;87.89
72096;BME280;59968;51.084;16.748;2023-10-08T05:23:14;100565.17;;;10.83;88.17
72096;BME280;59968;51.084;16.748;2023-10-08T05:26:02;100569.86;;;10.82;88.39
72096;BME280;59968;51.084;16.748;2023-10-08T05:28:38;100567.36;;;10.82;88.30
72096;BME280;59968;51.084;16.748;2023-10-08T05:31:29;100567.52;;;10.83;88.45
72096;BME280;59968;51.084;16.748;2023-10-08T05:34:13;100569.84;;;10.83;88.42
72096;BME280;59968;51.084;16.748;2023-10-08T05:36:51;100585.07;;;10.85;88.61
72096;BME280;59968;51.084;16.748;2023-10-08T05:39:32;100591.95;;;10.85;88.62
72096;BME280;59968;51.084;16.748;2023-10-08T05:42:07;100603.52;;;10.85;88.66
72096;BME280;59968;51.084;16.748;2023-10-08T05:44:48;100609.52;;;10.87;88.71
72096;BME280;59968;51.084;16.748;2023-10-08T05:47:36;100615.26;;;10.88;88.78
72096;BME280;59968;51.084;16.748;2023-10-08T05:50:05;100608.09;;;10.87;89.03
72096;BME280;59968;51.084;16.748;2023-10-08T05:52:47;100617.11;;;10.87;88.99
72096;BME280;59968;51.084;16.748;2023-10-08T05:55:21;100625.96;;;10.86;89.08
72096;BME280;59968;51.084;16.748;2023-10-08T05:58:06;100626.16;;;10.87;89.13
72096;BME280;59968;51.084;16.748;2023-10-08T06:00:47;100635.95;;;10.87;89.27
72096;BME280;59968;51.084;16.748;2023-10-08T06:03:20;100653.11;;;10.87;89.29
72096;BME280;59968;51.084;16.748;2023-10-08T06:06:04;100660.52;;;10.90;89.35
72096;BME280;59968;51.084;16.748;2023-10-08T06:08:45;100665.18;;;10.93;89.53
72096;BME280;59968;51.084;16.748;2023-10-08T06:11:19;100670.73;;;10.96;89.53
72096;BME280;59968;51.084;16.748;2023-10-08T06:14:05;100672.47;;;10.97;89.51
72096;BME280;59968;51.084;16.748;2023-10-08T06:16:54;100677.07;;;11.01;89.42
72096;BME280;59968;51.084;16.748;2023-10-08T06:19:42;100681.40;;;11.06;89.48
72096;BME280;59968;51.084;16.748;2023-10-08T06:22:11;100687.36;;;11.10;89.59
72096;BME280;59968;51.084;16.748;2023-10-08T06:24:41;100688.59;;;11.14;89.58
72096;BME280;59968;51.084;16.748;2023-10-08T06:27:10;100688.55;;;11.16;89.33
72096;BME280;59968;51.084;16.748;2023-10-08T06:29:45;100695.47;;;11.21;89.49
72096;BME280;59968;51.084;16.748;2023-10-08T06:32:15;100698.83;;;11.24;89.48
72096;BME280;59968;51.084;16.748;2023-10-08T06:34:44;100709.45;;;11.28;89.46
72096;BME280;59968;51.084;16.748;2023-10-08T06:37:13;100718.17;;;11.33;89.54
72096;BME280;59968;51.084;16.748;2023-10-08T06:39:44;100724.59;;;11.39;89.35
72096;BME280;59968;51.084;16.748;2023-10-08T06:42:16;100727.62;;;11.45;89.25
72096;BME280;59968;51.084;16.748;2023-10-08T06:44:45;100729.86;;;11.49;89.04
72096;BME280;59968;51.084;16.748;2023-10-08T06:47:17;100739.27;;;11.55;88.93
72096;BME280;59968;51.084;16.748;2023-10-08T06:49:51;100719.06;;;11.41;88.67
72096;BME280;59968;51.084;16.748;2023-10-08T06:52:20;100752.39;;;11.65;88.89
72096;BME280;59968;51.084;16.748;2023-10-08T06:54:49;100760.37;;;11.69;88.71
72096;BME280;59968;51.084;16.748;2023-10-08T06:57:23;100769.02;;;11.77;88.69
72096;BME280;59968;51.084;16.748;2023-10-08T06:59:55;100774.98;;;11.83;88.56
72096;BME280;59968;51.084;16.748;2023-10-08T07:02:24;100782.40;;;11.88;87.64
72096;BME280;59968;51.084;16.748;2023-10-08T07:04:55;100794.47;;;11.92;86.92
72096;BME280;59968;51.084;16.748;2023-10-08T07:07:25;100798.45;;;11.98;86.76
72096;BME280;59968;51.084;16.748;2023-10-08T07:09:58;100800.43;;;12.05;86.47
72096;BME280;59968;51.084;16.748;2023-10-08T07:12:28;100803.14;;;12.15;86.23
72096;BME280;59968;51.084;16.748;2023-10-08T07:14:58;100815.09;;;12.25;86.14
72096;BME280;59968;51.084;16.748;2023-10-08T07:17:27;100823.02;;;12.29;84.48
72096;BME280;59968;51.084;16.748;2023-10-08T07:20:06;100825.64;;;12.26;82.85
72096;BME280;59968;51.084;16.748;2023-10-08T07:22:42;100819.45;;;12.30;82.44
72096;BME280;59968;51.084;16.748;2023-10-08T07:25:12;100816.48;;;12.33;82.10
72096;BME280;59968;51.084;16.748;2023-10-08T07:27:48;100819.63;;;12.36;79.93
72096;BME280;59968;51.084;16.748;2023-10-08T07:30:17;100819.30;;;12.36;79.27
72096;BME280;59968;51.084;16.748;2023-10-08T07:32:55;100828.52;;;12.40;78.87
72096;BME280;59968;51.084;16.748;2023-10-08T07:35:27;100835.86;;;12.43;78.54
72096;BME280;59968;51.084;16.748;2023-10-08T07:37:59;100843.61;;;12.48;78.61
72096;BME280;59968;51.084;16.748;2023-10-08T07:40:28;100846.71;;;12.47;76.52
72096;BME280;59968;51.084;16.748;2023-10-08T07:42:59;100862.30;;;12.47;76.72
72096;BME280;59968;51.084;16.748;2023-10-08T07:45:37;100867.86;;;12.51;76.71
72096;BME280;59968;51.084;16.748;2023-10-08T07:48:06;100870.98;;;12.61;77.22
72096;BME280;59968;51.084;16.748;2023-10-08T07:50:43;100880.86;;;12.69;77.31
72096;BME280;59968;51.084;16.748;2023-10-08T07:53:13;100880.89;;;12.77;76.17
72096;BME280;59968;51.084;16.748;2023-10-08T07:55:47;100876.11;;;12.81;74.52
72096;BME280;59968;51.084;16.748;2023-10-08T07:58:19;100881.58;;;12.90;75.69
72096;BME280;59968;51.084;16.748;2023-10-08T08:00:49;100879.84;;;13.04;74.98
72096;BME280;59968;51.084;16.748;2023-10-08T08:03:21;100879.07;;;13.12;73.95
72096;BME280;59968;51.084;16.748;2023-10-08T08:05:50;100881.41;;;13.09;73.69
72096;BME280;59968;51.084;16.748;2023-10-08T08:08:22;100884.20;;;13.04;72.78
72096;BME280;59968;51.084;16.748;2023-10-08T08:10:52;100894.58;;;12.91;71.27
72096;BME280;59968;51.084;16.748;2023-10-08T08:13:26;100907.08;;;12.82;70.36
72096;BME280;59968;51.084;16.748;2023-10-08T08:15:56;100913.83;;;12.75;70.19
72096;BME280;59968;51.084;16.748;2023-10-08T08:18:27;100915.66;;;12.66;68.81
72096;BME280;59968;51.084;16.748;2023-10-08T08:21:01;100912.08;;;12.64;67.78
72096;BME280;59968;51.084;16.748;2023-10-08T08:23:30;100910.40;;;12.68;68.54
72096;BME280;59968;51.084;16.748;2023-10-08T08:26:00;100908.00;;;12.73;64.35
72096;BME280;59968;51.084;16.748;2023-10-08T08:28:31;100907.80;;;12.77;65.12
72096;BME280;59968;51.084;16.748;2023-10-08T08:31:04;100912.04;;;12.81;63.87
72096;BME280;59968;51.084;16.748;2023-10-08T08:33:42;100920.13;;;12.84;62.38
72096;BME280;59968;51.084;16.748;2023-10-08T08:36:30;100927.45;;;12.85;60.91
72096;BME280;59968;51.084;16.748;2023-10-08T08:39:00;100927.40;;;12.84;61.85
72096;BME280;59968;51.084;16.748;2023-10-08T08:41:29;100930.33;;;12.86;63.54
72096;BME280;59968;51.084;16.748;2023-10-08T08:43:58;100926.88;;;12.88;63.93
72096;BME280;59968;51.084;16.748;2023-10-08T08:46:36;100927.23;;;12.94;63.58
72096;BME280;59968;51.084;16.748;2023-10-08T08:49:07;100931.98;;;13.02;63.69
72096;BME280;59968;51.084;16.748;2023-10-08T08:51:36;100938.20;;;13.11;62.39
72096;BME280;59968;51.084;16.748;2023-10-08T08:54:06;100945.74;;;13.17;61.34
72096;BME280;59968;51.084;16.748;2023-10-08T08:56:37;100956.44;;;13.22;59.43
72096;BME280;59968;51.084;16.748;2023-10-08T08:59:07;100950.74;;;13.28;60.63
72096;BME280;59968;51.084;16.748;2023-10-08T09:01:44;100950.81;;;13.32;60.60
72096;BME280;59968;51.084;16.748;2023-10-08T09:04:14;100948.64;;;13.39;59.92
72096;BME280;59968;51.084;16.748;2023-10-08T09:06:45;100951.05;;;13.46;59.51
72096;BME280;59968;51.084;16.748;2023-10-08T09:09:14;100949.05;;;13.55;59.59
72096;BME280;59968;51.084;16.748;2023-10-08T09:11:52;100949.71;;;13.64;58.92
72096;BME280;59968;51.084;16.748;2023-10-08T09:14:23;100954.44;;;13.71;56.99
72096;BME280;59968;51.084;16.748;2023-10-08T09:16:53;100956.38;;;13.73;56.49
72096;BME280;59968;51.084;16.748;2023-10-08T09:19:27;100958.88;;;13.77;54.26
72096;BME280;59968;51.084;16.748;2023-10-08T09:22:10;100961.13;;;13.79;52.90
72096;BME280;59968;51.084;16.748;2023-10-08T09:24:41;100964.95;;;13.82;51.69
72096;BME280;59968;51.084;16.748;2023-10-08T09:27:12;100971.11;;;13.85;50.82
72096;BME280;59968;51.084;16.748;2023-10-08T09:29:46;100976.98;;;13.90;50.24
72096;BME280;59968;51.084;16.748;2023-10-08T09:32:15;100978.64;;;13.92;52.03
72096;BME280;59968;51.084;16.748;2023-10-08T09:34:52;100985.31;;;13.93;51.68
72096;BME280;59968;51.084;16.748;2023-10-08T09:37:21;100990.48;;;13.92;51.92
72096;BME280;59968;51.084;16.748;2023-10-08T09:39:51;100995.80;;;13.89;52.55
72096;BME280;59968;51.084;16.748;2023-10-08T09:42:21;100993.15;;;13.90;53.97
72096;BME280;59968;51.084;16.748;2023-10-08T09:44:51;100999.17;;;13.90;53.61
72096;BME280;59968;51.084;16.748;2023-10-08T09:47:25;101001.20;;;13.95;54.80
72096;BME280;59968;51.084;16.748;2023-10-08T09:50:03;101002.20;;;14.02;55.92
72096;BME280;59968;51.084;16.748;2023-10-08T09:52:54;101011.11;;;14.12;56.51
72096;BME280;59968;51.084;16.748;2023-10-08T09:55:27;101020.83;;;14.22;56.50
72096;BME280;59968;51.084;16.748;2023-10-08T09:57:57;101020.29;;;14.32;56.04
72096;BME280;59968;51.084;16.748;2023-10-08T10:00:27;101023.56;;;14.38;55.25
72096;BME280;59968;51.084;16.748;2023-10-08T10:03:00;101032.96;;;14.39;53.30
72096;BME280;59968;51.084;16.748;2023-10-08T10:05:32;101031.33;;;14.38;52.35
72096;BME280;59968;51.084;16.748;2023-10-08T10:08:04;101033.15;;;14.37;50.79
72096;BME280;59968;51.084;16.748;2023-10-08T10:10:39;101037.05;;;14.36;51.19
72096;BME280;59968;51.084;16.748;2023-10-08T10:13:10;101040.38;;;14.37;51.04
72096;BME280;59968;51.084;16.748;2023-10-08T10:15:42;101044.03;;;14.37;50.03
72096;BME280;59968;51.084;16.748;2023-10-08T10:18:27;101041.10;;;14.36;50.92
72096;BME280;59968;51.084;16.748;2023-10-08T10:23:48;101042.45;;;14.46;51.55
72096;BME280;59968;51.084;16.748;2023-10-08T10:26:34;101051.39;;;14.52;48.70
72096;BME280;59968;51.084;16.748;2023-10-08T10:31:50;101059.19;;;14.55;49.82
72096;BME280;59968;51.084;16.748;2023-10-08T10:34:26;101058.81;;;14.60;50.31
72096;BME280;59968;51.084;16.748;2023-10-08T10:36:58;101059.27;;;14.64;50.84
72096;BME280;59968;51.084;16.748;2023-10-08T10:39:28;101055.77;;;14.69;50.91
72096;BME280;59968;51.084;16.748;2023-10-08T10:42:03;101054.98;;;14.71;50.18
72096;BME280;59968;51.084;16.748;2023-10-08T10:44:34;101052.52;;;14.71;48.00
72096;BME280;59968;51.084;16.748;2023-10-08T10:47:05;101059.08;;;14.69;49.25
72096;BME280;59968;51.084;16.748;2023-10-08T10:49:50;101059.13;;;14.70;47.18
72096;BME280;59968;51.084;16.748;2023-10-08T10:52:21;101056.52;;;14.68;47.25
72096;BME280;59968;51.084;16.748;2023-10-08T10:55:26;101062.65;;;14.65;45.76
72096;BME280;59968;51.084;16.748;2023-10-08T10:58:00;101066.58;;;14.64;47.12
72096;BME280;59968;51.084;16.748;2023-10-08T11:00:44;101065.06;;;14.69;47.38
72096;BME280;59968;51.084;16.748;2023-10-08T11:03:13;101062.54;;;14.74;47.08
72096;BME280;59968;51.084;16.748;2023-10-08T11:05:51;101068.39;;;14.78;46.37
72096;BME280;59968;51.084;16.748;2023-10-08T11:08:23;101066.27;;;14.80;46.69
72096;BME280;59968;51.084;16.748;2023-10-08T11:10:53;101062.13;;;14.86;47.25
72096;BME280;59968;51.084;16.748;2023-10-08T11:13:27;101060.40;;;14.95;47.72
72096;BME280;59968;51.084;16.748;2023-10-08T11:15:57;101064.20;;;15.04;46.80
72096;BME280;59968;51.084;16.748;2023-10-08T11:18:28;101069.80;;;15.05;45.50
72096;BME280;59968;51.084;16.748;2023-10-08T11:21:09;101066.33;;;15.02;46.13
72096;BME280;59968;51.084;16.748;2023-10-08T11:23:46;101062.95;;;14.99;47.09
72096;BME280;59968;51.084;16.748;2023-10-08T11:26:23;101071.11;;;15.00;47.85
72096;BME280;59968;51.084;16.748;2023-10-08T11:29:01;101070.08;;;15.04;47.56
72096;BME280;59968;51.084;16.748;2023-10-08T11:31:32;101072.73;;;15.09;46.81
72096;BME280;59968;51.084;16.748;2023-10-08T11:34:03;101075.79;;;15.12;43.82
72096;BME280;59968;51.084;16.748;2023-10-08T11:36:38;101070.33;;;15.10;44.57
72096;BME280;59968;51.084;16.748;2023-10-08T11:39:22;101069.71;;;15.11;44.39
72096;BME280;59968;51.084;16.748;2023-10-08T11:41:56;101067.23;;;15.08;45.64
72096;BME280;59968;51.084;16.748;2023-10-08T11:44:25;101068.27;;;15.10;46.11
72096;BME280;59968;51.084;16.748;2023-10-08T11:46:59;101067.30;;;15.13;45.33
72096;BME280;59968;51.084;16.748;2023-10-08T11:49:40;101071.41;;;15.19;46.58
72096;BME280;59968;51.084;16.748;2023-10-08T11:52:26;101071.70;;;15.25;47.20
72096;BME280;59968;51.084;16.748;2023-10-08T11:54:56;101068.04;;;15.25;45.90
72096;BME280;59968;51.084;16.748;2023-10-08T11:57:27;101064.25;;;15.24;45.69
72096;BME280;59968;51.084;16.748;2023-10-08T11:59:57;101062.41;;;15.22;44.87
72096;BME280;59968;51.084;16.748;2023-10-08T12:02:28;101064.27;;;15.23;44.27
72096;BME280;59968;51.084;16.748;2023-10-08T12:04:58;101060.79;;;15.11;43.93
72096;BME280;59968;51.084;16.748;2023-10-08T12:07:27;101066.15;;;14.99;44.28
72096;BME280;59968;51.084;16.748;2023-10-08T12:09:57;101065.02;;;14.87;45.25
72096;BME280;59968;51.084;16.748;2023-10-08T12:12:26;101063.11;;;14.77;46.35
72096;BME280;59968;51.084;16.748;2023-10-08T12:14:56;101066.98;;;14.69;46.18
72096;BME280;59968;51.084;16.748;2023-10-08T12:17:25;101067.34;;;14.55;45.55
72096;BME280;59968;51.084;16.748;2023-10-08T12:20:07;101062.42;;;14.49;46.02
72096;BME280;59968;51.084;16.748;2023-10-08T12:22:52;101060.59;;;14.55;46.95
72096;BME280;59968;51.084;16.748;2023-10-08T12:25:22;101062.39;;;14.65;48.08
72096;BME280;59968;51.084;16.748;2023-10-08T12:27:51;101064.27;;;14.77;47.17
72096;BME280;59968;51.084;16.748;2023-10-08T12:30:20;101061.16;;;14.85;44.83
72096;BME280;59968;51.084;16.748;2023-10-08T12:33:00;101068.70;;;14.92;45.22
72096;BME280;59968;51.084;16.748;2023-10-08T12:35:29;101070.34;;;14.97;47.59
72096;BME280;59968;51.084;16.748;2023-10-08T12:37:57;101069.71;;;15.03;46.57
72096;BME280;59968;51.084;16.748;2023-10-08T12:40:27;101066.61;;;15.05;44.32
72096;BME280;59968;51.084;16.748;2023-10-08T12:43:10;101064.37;;;15.05;45.54
72096;BME280;59968;51.084;16.748;2023-10-08T12:45:39;101068.42;;;15.01;43.42
72096;BME280;59968;51.084;16.748;2023-10-08T12:48:08;101070.77;;;14.86;44.06
72096;BME280;59968;51.084;16.748;2023-10-08T12:50:37;101066.63;;;14.70;44.92
72096;BME280;59968;51.084;16.748;2023-10-08T12:53:12;101066.20;;;14.60;44.78
72096;BME280;59968;51.084;16.748;2023-10-08T12:55:40;101068.38;;;14.53;45.71
72096;BME280;59968;51.084;16.748;2023-10-08T12:58:09;101071.94;;;14.48;44.58
72096;BME280;59968;51.084;16.748;2023-10-08T13:00:40;101063.75;;;14.48;44.75
72096;BME280;59968;51.084;16.748;2023-10-08T13:03:18;101065.21;;;14.51;45.84
72096;BME280;59968;51.084;16.748;2023-10-08T13:05:53;101067.47;;;14.54;46.68
72096;BME280;59968;51.084;16.748;2023-10-08T13:08:23;101068.97;;;14.60;47.17
72096;BME280;59968;51.084;16.748;2023-10-08T13:10:55;101066.06;;;14.65;45.46
72096;BME280;59968;51.084;16.748;2023-10-08T13:13:31;101068.50;;;14.65;44.72
72096;BME280;59968;51.084;16.748;2023-10-08T13:16:02;101075.02;;;14.69;45.30
72096;BME280;59968;51.084;16.748;2023-10-08T13:18:37;101074.19;;;14.71;44.24
72096;BME280;59968;51.084;16.748;2023-10-08T13:21:06;101077.97;;;14.73;44.81
72096;BME280;59968;51.084;16.748;2023-10-08T13:23:36;101072.74;;;14.74;43.89